Atahona, Argentina
Current Conditions -  °F | °C
As of 8:00 PM on Friday 28 Nov 2014 (Local Time) from SACO Reporting Station
Scattered Clouds Scattered Clouds  
Wind Chill: 26°   Ceiling: Unl
Heat Index: 26°   Visibility: 6mi
Dew Point: 11°   Wind: 12mph
Humidity: 39%   Direction: 50°NE
Pressure: 29.8"   Gusts: NA
Location:  30.83°S, 63.55°W
Report Text: SACO 282300Z 05010KT 9999 SCT030 SCT10026/11 Q1009
Loading
Personal Weather Stations






























Interactive Weather Map New forecast layout! Learn more

10-Day Weather Forecast

Advertisements
Track Severe Weather on mobile